Ashville, Pennsylvania
Current Conditions -  °F | °C
As of 11:25 AM on Wednesday 26 Nov 2014 (Local Time) from KAOO Reporting Station
Heavy Snow Heavy Snow  
Wind Chill: 26°   Ceiling: 500
Heat Index: 31°   Visibility: 0.25mi
Dew Point: 31°   Wind: 5mph
Humidity: 100%   Direction: 60°ENE
Pressure: 30.04"   Gusts: NA
Location:  40.56°N, 78.55°W
Report Text: KAOO 261625Z AUTO 06004KT 1/4SM +SN FZFG BKN005 OVC008 M01/M01 A3004 RMK AO2 P0000 T10061006
Loading
Personal Weather Stations






























Interactive Weather Map New forecast layout! Learn more

10-Day Weather Forecast

Advertisements
Track Severe Weather on mobile